sensor_id;sensor_type;location;lat;lon;timestamp;P1;durP1;ratioP1;P2;durP2;ratioP2
55655;SDS011;41530;52.382;5.270;2022-08-19T00:01:33;3.17;;;1.77;;
55655;SDS011;41530;52.382;5.270;2022-08-19T00:04:04;1.50;;;1.40;;
55655;SDS011;41530;52.382;5.270;2022-08-19T00:06:33;3.50;;;2.08;;
55655;SDS011;41530;52.382;5.270;2022-08-19T00:09:04;2.00;;;1.80;;
55655;SDS011;41530;52.382;5.270;2022-08-19T00:11:33;2.40;;;2.00;;
55655;SDS011;41530;52.382;5.270;2022-08-19T00:14:04;1.55;;;1.40;;
55655;SDS011;41530;52.382;5.270;2022-08-19T00:16:34;2.05;;;1.42;;
55655;SDS011;41530;52.382;5.270;2022-08-19T00:19:02;1.52;;;1.20;;
55655;SDS011;41530;52.382;5.270;2022-08-19T00:21:29;3.67;;;1.45;;
55655;SDS011;41530;52.382;5.270;2022-08-19T00:23:56;4.28;;;1.80;;
55655;SDS011;41530;52.382;5.270;2022-08-19T00:26:28;2.92;;;1.35;;
55655;SDS011;41530;52.382;5.270;2022-08-19T00:28:58;2.95;;;1.55;;
55655;SDS011;41530;52.382;5.270;2022-08-19T00:31:30;5.18;;;1.52;;
55655;SDS011;41530;52.382;5.270;2022-08-19T00:33:57;5.28;;;1.50;;
55655;SDS011;41530;52.382;5.270;2022-08-19T00:36:24;3.00;;;1.42;;
55655;SDS011;41530;52.382;5.270;2022-08-19T00:38:51;1.50;;;1.30;;
55655;SDS011;41530;52.382;5.270;2022-08-19T00:41:20;1.95;;;1.55;;
55655;SDS011;41530;52.382;5.270;2022-08-19T00:46:52;2.80;;;1.58;;
55655;SDS011;41530;52.382;5.270;2022-08-19T00:49:57;3.67;;;1.80;;
55655;SDS011;41530;52.382;5.270;2022-08-19T00:52:31;5.28;;;2.10;;
55655;SDS011;41530;52.382;5.270;2022-08-19T00:55:00;3.17;;;2.10;;
55655;SDS011;41530;52.382;5.270;2022-08-19T00:57:30;2.92;;;2.00;;
55655;SDS011;41530;52.382;5.270;2022-08-19T01:00:00;2.67;;;2.05;;
55655;SDS011;41530;52.382;5.270;2022-08-19T01:02:30;4.07;;;2.50;;
55655;SDS011;41530;52.382;5.270;2022-08-19T01:04:57;3.05;;;2.30;;
55655;SDS011;41530;52.382;5.270;2022-08-19T01:07:26;2.10;;;1.92;;
55655;SDS011;41530;52.382;5.270;2022-08-19T01:10:00;2.22;;;1.70;;
55655;SDS011;41530;52.382;5.270;2022-08-19T01:12:28;1.67;;;1.40;;
55655;SDS011;41530;52.382;5.270;2022-08-19T01:14:54;1.90;;;1.40;;
55655;SDS011;41530;52.382;5.270;2022-08-19T01:17:24;1.63;;;1.52;;
55655;SDS011;41530;52.382;5.270;2022-08-19T01:19:50;2.88;;;1.45;;
55655;SDS011;41530;52.382;5.270;2022-08-19T01:24:56;3.03;;;1.90;;
55655;SDS011;41530;52.382;5.270;2022-08-19T01:27:24;2.70;;;1.85;;
55655;SDS011;41530;52.382;5.270;2022-08-19T01:29:51;2.22;;;1.65;;
55655;SDS011;41530;52.382;5.270;2022-08-19T01:32:17;2.30;;;1.50;;
55655;SDS011;41530;52.382;5.270;2022-08-19T01:34:59;1.92;;;1.73;;
55655;SDS011;41530;52.382;5.270;2022-08-19T01:37:27;1.75;;;1.50;;
55655;SDS011;41530;52.382;5.270;2022-08-19T01:39:56;1.85;;;1.40;;
55655;SDS011;41530;52.382;5.270;2022-08-19T01:42:23;2.13;;;1.55;;
55655;SDS011;41530;52.382;5.270;2022-08-19T01:44:55;2.28;;;1.50;;
55655;SDS011;41530;52.382;5.270;2022-08-19T01:47:22;3.00;;;1.70;;
55655;SDS011;41530;52.382;5.270;2022-08-19T01:49:49;1.73;;;1.63;;
55655;SDS011;41530;52.382;5.270;2022-08-19T01:52:16;2.30;;;2.05;;
55655;SDS011;41530;52.382;5.270;2022-08-19T01:54:42;2.85;;;2.40;;
55655;SDS011;41530;52.382;5.270;2022-08-19T01:57:10;5.28;;;2.00;;
55655;SDS011;41530;52.382;5.270;2022-08-19T01:59:40;2.33;;;1.52;;
55655;SDS011;41530;52.382;5.270;2022-08-19T02:02:09;5.30;;;1.80;;
55655;SDS011;41530;52.382;5.270;2022-08-19T02:04:35;1.85;;;1.40;;
55655;SDS011;41530;52.382;5.270;2022-08-19T02:07:04;1.70;;;1.60;;
55655;SDS011;41530;52.382;5.270;2022-08-19T02:09:32;2.25;;;1.80;;
55655;SDS011;41530;52.382;5.270;2022-08-19T02:11:58;1.80;;;1.70;;
55655;SDS011;41530;52.382;5.270;2022-08-19T02:14:25;1.85;;;1.60;;
55655;SDS011;41530;52.382;5.270;2022-08-19T02:16:52;3.30;;;1.67;;
55655;SDS011;41530;52.382;5.270;2022-08-19T02:19:18;3.30;;;1.70;;
55655;SDS011;41530;52.382;5.270;2022-08-19T02:21:45;2.85;;;1.60;;
55655;SDS011;41530;52.382;5.270;2022-08-19T02:24:12;3.15;;;1.83;;
55655;SDS011;41530;52.382;5.270;2022-08-19T02:26:38;1.67;;;1.30;;
55655;SDS011;41530;52.382;5.270;2022-08-19T02:29:05;2.60;;;2.10;;
55655;SDS011;41530;52.382;5.270;2022-08-19T02:31:32;2.53;;;1.67;;
55655;SDS011;41530;52.382;5.270;2022-08-19T02:33:59;4.18;;;1.70;;
55655;SDS011;41530;52.382;5.270;2022-08-19T02:36:27;2.83;;;1.58;;
55655;SDS011;41530;52.382;5.270;2022-08-19T02:38:56;3.22;;;1.52;;
55655;SDS011;41530;52.382;5.270;2022-08-19T02:41:25;2.35;;;1.63;;
55655;SDS011;41530;52.382;5.270;2022-08-19T02:43:55;4.40;;;1.70;;
55655;SDS011;41530;52.382;5.270;2022-08-19T02:46:48;2.05;;;1.70;;
55655;SDS011;41530;52.382;5.270;2022-08-19T02:49:18;2.95;;;2.38;;
55655;SDS011;41530;52.382;5.270;2022-08-19T02:51:47;3.75;;;2.50;;
55655;SDS011;41530;52.382;5.270;2022-08-19T02:54:14;5.53;;;3.00;;
55655;SDS011;41530;52.382;5.270;2022-08-19T02:56:41;5.03;;;2.75;;
55655;SDS011;41530;52.382;5.270;2022-08-19T02:59:10;4.82;;;2.65;;
55655;SDS011;41530;52.382;5.270;2022-08-19T03:01:39;3.47;;;2.92;;
55655;SDS011;41530;52.382;5.270;2022-08-19T03:04:10;4.15;;;2.75;;
55655;SDS011;41530;52.382;5.270;2022-08-19T03:06:40;6.10;;;2.92;;
55655;SDS011;41530;52.382;5.270;2022-08-19T03:09:11;4.40;;;2.75;;
55655;SDS011;41530;52.382;5.270;2022-08-19T03:11:41;2.97;;;2.65;;
55655;SDS011;41530;52.382;5.270;2022-08-19T03:14:08;4.88;;;2.80;;
55655;SDS011;41530;52.382;5.270;2022-08-19T03:16:42;4.75;;;2.85;;
55655;SDS011;41530;52.382;5.270;2022-08-19T03:19:12;3.38;;;2.55;;
55655;SDS011;41530;52.382;5.270;2022-08-19T03:21:40;3.70;;;2.60;;
55655;SDS011;41530;52.382;5.270;2022-08-19T03:24:10;4.60;;;2.67;;
55655;SDS011;41530;52.382;5.270;2022-08-19T03:26:38;3.70;;;2.83;;
55655;SDS011;41530;52.382;5.270;2022-08-19T03:29:09;5.03;;;2.83;;
55655;SDS011;41530;52.382;5.270;2022-08-19T03:31:38;3.67;;;3.13;;
55655;SDS011;41530;52.382;5.270;2022-08-19T03:34:22;4.15;;;3.17;;
55655;SDS011;41530;52.382;5.270;2022-08-19T03:36:55;2.88;;;2.53;;
55655;SDS011;41530;52.382;5.270;2022-08-19T03:39:24;6.72;;;3.30;;
55655;SDS011;41530;52.382;5.270;2022-08-19T03:41:52;5.63;;;3.50;;
55655;SDS011;41530;52.382;5.270;2022-08-19T03:44:43;6.30;;;3.65;;
55655;SDS011;41530;52.382;5.270;2022-08-19T03:47:11;5.10;;;3.58;;
55655;SDS011;41530;52.382;5.270;2022-08-19T03:49:42;5.25;;;3.35;;
55655;SDS011;41530;52.382;5.270;2022-08-19T03:52:09;2.97;;;2.30;;
55655;SDS011;41530;52.382;5.270;2022-08-19T03:54:36;4.63;;;2.45;;
55655;SDS011;41530;52.382;5.270;2022-08-19T03:57:04;3.83;;;3.03;;
55655;SDS011;41530;52.382;5.270;2022-08-19T03:59:33;3.58;;;3.17;;
55655;SDS011;41530;52.382;5.270;2022-08-19T04:02:06;5.95;;;3.42;;
55655;SDS011;41530;52.382;5.270;2022-08-19T04:04:36;2.80;;;2.22;;
55655;SDS011;41530;52.382;5.270;2022-08-19T04:07:04;7.07;;;2.60;;
55655;SDS011;41530;52.382;5.270;2022-08-19T04:09:32;4.72;;;3.25;;
55655;SDS011;41530;52.382;5.270;2022-08-19T04:12:00;6.25;;;3.38;;
55655;SDS011;41530;52.382;5.270;2022-08-19T04:14:28;4.78;;;3.47;;
55655;SDS011;41530;52.382;5.270;2022-08-19T04:16:58;4.38;;;3.25;;
55655;SDS011;41530;52.382;5.270;2022-08-19T04:19:26;5.07;;;4.13;;
55655;SDS011;41530;52.382;5.270;2022-08-19T04:21:55;6.50;;;3.83;;
55655;SDS011;41530;52.382;5.270;2022-08-19T04:24:22;4.53;;;2.78;;
55655;SDS011;41530;52.382;5.270;2022-08-19T04:26:51;6.53;;;2.80;;
55655;SDS011;41530;52.382;5.270;2022-08-19T04:29:38;3.47;;;2.38;;
55655;SDS011;41530;52.382;5.270;2022-08-19T04:32:10;3.45;;;2.60;;
55655;SDS011;41530;52.382;5.270;2022-08-19T04:34:50;5.55;;;3.53;;
55655;SDS011;41530;52.382;5.270;2022-08-19T04:37:40;4.53;;;2.83;;
55655;SDS011;41530;52.382;5.270;2022-08-19T04:40:10;3.15;;;2.85;;
55655;SDS011;41530;52.382;5.270;2022-08-19T04:43:09;5.00;;;3.17;;
55655;SDS011;41530;52.382;5.270;2022-08-19T04:45:43;4.25;;;2.55;;
55655;SDS011;41530;52.382;5.270;2022-08-19T04:48:11;4.22;;;2.92;;
55655;SDS011;41530;52.382;5.270;2022-08-19T04:50:53;3.40;;;3.10;;
55655;SDS011;41530;52.382;5.270;2022-08-19T04:53:27;5.50;;;2.92;;
55655;SDS011;41530;52.382;5.270;2022-08-19T04:58:35;5.28;;;2.80;;
55655;SDS011;41530;52.382;5.270;2022-08-19T05:01:02;4.53;;;2.67;;
55655;SDS011;41530;52.382;5.270;2022-08-19T05:03:30;3.10;;;2.40;;
55655;SDS011;41530;52.382;5.270;2022-08-19T05:06:06;2.58;;;2.28;;
55655;SDS011;41530;52.382;5.270;2022-08-19T05:08:34;3.15;;;2.50;;
55655;SDS011;41530;52.382;5.270;2022-08-19T05:11:14;3.23;;;2.60;;
55655;SDS011;41530;52.382;5.270;2022-08-19T05:13:57;2.88;;;2.10;;
55655;SDS011;41530;52.382;5.270;2022-08-19T05:16:25;3.40;;;2.35;;
55655;SDS011;41530;52.382;5.270;2022-08-19T05:18:52;3.22;;;2.67;;
55655;SDS011;41530;52.382;5.270;2022-08-19T05:21:40;2.83;;;2.60;;
55655;SDS011;41530;52.382;5.270;2022-08-19T05:24:28;5.38;;;2.92;;
55655;SDS011;41530;52.382;5.270;2022-08-19T05:26:56;3.53;;;2.95;;
55655;SDS011;41530;52.382;5.270;2022-08-19T05:29:25;4.78;;;2.70;;
55655;SDS011;41530;52.382;5.270;2022-08-19T05:32:02;3.72;;;3.28;;
55655;SDS011;41530;52.382;5.270;2022-08-19T05:34:31;4.07;;;3.55;;
55655;SDS011;41530;52.382;5.270;2022-08-19T05:37:03;5.45;;;4.05;;
55655;SDS011;41530;52.382;5.270;2022-08-19T05:39:35;10.27;;;5.00;;
55655;SDS011;41530;52.382;5.270;2022-08-19T05:42:04;5.68;;;4.57;;
55655;SDS011;41530;52.382;5.270;2022-08-19T05:44:34;6.93;;;4.25;;
55655;SDS011;41530;52.382;5.270;2022-08-19T05:47:04;11.10;;;5.30;;
55655;SDS011;41530;52.382;5.270;2022-08-19T05:49:33;7.30;;;5.90;;
55655;SDS011;41530;52.382;5.270;2022-08-19T05:52:04;6.88;;;5.43;;
55655;SDS011;41530;52.382;5.270;2022-08-19T05:54:33;9.43;;;6.80;;
55655;SDS011;41530;52.382;5.270;2022-08-19T05:57:04;10.43;;;5.65;;
55655;SDS011;41530;52.382;5.270;2022-08-19T05:59:40;10.55;;;6.70;;
55655;SDS011;41530;52.382;5.270;2022-08-19T06:02:08;7.93;;;4.38;;
55655;SDS011;41530;52.382;5.270;2022-08-19T06:04:35;8.32;;;3.55;;
55655;SDS011;41530;52.382;5.270;2022-08-19T06:07:01;9.77;;;5.93;;
55655;SDS011;41530;52.382;5.270;2022-08-19T06:09:38;6.90;;;4.28;;
55655;SDS011;41530;52.382;5.270;2022-08-19T06:12:05;6.03;;;3.97;;
55655;SDS011;41530;52.382;5.270;2022-08-19T06:14:33;6.82;;;3.85;;
55655;SDS011;41530;52.382;5.270;2022-08-19T06:17:12;6.72;;;3.95;;
55655;SDS011;41530;52.382;5.270;2022-08-19T06:20:05;13.88;;;8.55;;
55655;SDS011;41530;52.382;5.270;2022-08-19T06:22:43;9.60;;;5.72;;
55655;SDS011;41530;52.382;5.270;2022-08-19T06:25:20;7.47;;;4.65;;
55655;SDS011;41530;52.382;5.270;2022-08-19T06:27:47;9.43;;;6.03;;
55655;SDS011;41530;52.382;5.270;2022-08-19T06:30:38;10.27;;;5.53;;
55655;SDS011;41530;52.382;5.270;2022-08-19T06:33:05;11.18;;;6.18;;
55655;SDS011;41530;52.382;5.270;2022-08-19T06:35:32;12.13;;;5.82;;
55655;SDS011;41530;52.382;5.270;2022-08-19T06:37:58;13.52;;;6.45;;
55655;SDS011;41530;52.382;5.270;2022-08-19T06:40:28;19.73;;;9.57;;
55655;SDS011;41530;52.382;5.270;2022-08-19T06:42:56;10.05;;;4.93;;
55655;SDS011;41530;52.382;5.270;2022-08-19T06:45:30;8.27;;;4.93;;
55655;SDS011;41530;52.382;5.270;2022-08-19T06:48:19;7.30;;;4.70;;
55655;SDS011;41530;52.382;5.270;2022-08-19T06:51:21;8.48;;;4.85;;
55655;SDS011;41530;52.382;5.270;2022-08-19T06:53:57;12.77;;;5.15;;
55655;SDS011;41530;52.382;5.270;2022-08-19T06:56:37;10.93;;;6.50;;
55655;SDS011;41530;52.382;5.270;2022-08-19T06:59:10;8.48;;;5.63;;
55655;SDS011;41530;52.382;5.270;2022-08-19T07:01:55;10.20;;;6.13;;
55655;SDS011;41530;52.382;5.270;2022-08-19T07:04:33;11.82;;;5.60;;
55655;SDS011;41530;52.382;5.270;2022-08-19T07:07:01;11.45;;;5.47;;
55655;SDS011;41530;52.382;5.270;2022-08-19T07:09:46;11.00;;;5.43;;
55655;SDS011;41530;52.382;5.270;2022-08-19T07:12:25;10.88;;;5.85;;
55655;SDS011;41530;52.382;5.270;2022-08-19T07:14:54;14.88;;;6.57;;
55655;SDS011;41530;52.382;5.270;2022-08-19T07:17:23;14.65;;;8.05;;
55655;SDS011;41530;52.382;5.270;2022-08-19T07:19:50;22.50;;;9.77;;
55655;SDS011;41530;52.382;5.270;2022-08-19T07:22:19;16.13;;;9.30;;
55655;SDS011;41530;52.382;5.270;2022-08-19T07:24:49;16.80;;;9.10;;
55655;SDS011;41530;52.382;5.270;2022-08-19T07:27:17;20.05;;;12.27;;
55655;SDS011;41530;52.382;5.270;2022-08-19T07:29:50;18.30;;;10.27;;
55655;SDS011;41530;52.382;5.270;2022-08-19T07:32:22;20.70;;;11.30;;
55655;SDS011;41530;52.382;5.270;2022-08-19T07:34:53;19.52;;;10.95;;
55655;SDS011;41530;52.382;5.270;2022-08-19T07:37:22;20.23;;;11.18;;
55655;SDS011;41530;52.382;5.270;2022-08-19T07:39:54;17.95;;;10.68;;
55655;SDS011;41530;52.382;5.270;2022-08-19T07:42:21;27.05;;;13.45;;
55655;SDS011;41530;52.382;5.270;2022-08-19T07:44:47;23.00;;;13.23;;
55655;SDS011;41530;52.382;5.270;2022-08-19T07:47:16;21.50;;;12.63;;
55655;SDS011;41530;52.382;5.270;2022-08-19T07:50:03;23.60;;;12.50;;
55655;SDS011;41530;52.382;5.270;2022-08-19T07:52:33;21.90;;;12.18;;
55655;SDS011;41530;52.382;5.270;2022-08-19T07:55:02;21.00;;;11.73;;
55655;SDS011;41530;52.382;5.270;2022-08-19T07:57:30;24.35;;;13.82;;
55655;SDS011;41530;52.382;5.270;2022-08-19T07:59:57;25.10;;;12.82;;
55655;SDS011;41530;52.382;5.270;2022-08-19T08:02:24;24.60;;;12.77;;
55655;SDS011;41530;52.382;5.270;2022-08-19T08:04:51;22.48;;;12.10;;
55655;SDS011;41530;52.382;5.270;2022-08-19T08:07:36;20.73;;;11.63;;
55655;SDS011;41530;52.382;5.270;2022-08-19T08:10:21;18.63;;;9.97;;
55655;SDS011;41530;52.382;5.270;2022-08-19T08:12:49;15.30;;;9.95;;
55655;SDS011;41530;52.382;5.270;2022-08-19T08:15:35;18.25;;;10.20;;
55655;SDS011;41530;52.382;5.270;2022-08-19T08:18:08;21.98;;;10.38;;
55655;SDS011;41530;52.382;5.270;2022-08-19T08:20:35;23.45;;;12.55;;
55655;SDS011;41530;52.382;5.270;2022-08-19T08:23:02;18.65;;;10.13;;
55655;SDS011;41530;52.382;5.270;2022-08-19T08:25:47;20.07;;;10.50;;
55655;SDS011;41530;52.382;5.270;2022-08-19T08:28:15;21.08;;;11.23;;
55655;SDS011;41530;52.382;5.270;2022-08-19T08:30:43;20.00;;;10.00;;
55655;SDS011;41530;52.382;5.270;2022-08-19T08:33:12;15.57;;;10.15;;
55655;SDS011;41530;52.382;5.270;2022-08-19T08:35:44;23.13;;;11.32;;
55655;SDS011;41530;52.382;5.270;2022-08-19T08:38:12;22.02;;;11.00;;
55655;SDS011;41530;52.382;5.270;2022-08-19T08:40:53;18.92;;;9.55;;
55655;SDS011;41530;52.382;5.270;2022-08-19T08:43:34;21.38;;;10.35;;
55655;SDS011;41530;52.382;5.270;2022-08-19T08:46:17;25.33;;;12.60;;
55655;SDS011;41530;52.382;5.270;2022-08-19T08:51:32;24.17;;;12.10;;
55655;SDS011;41530;52.382;5.270;2022-08-19T08:54:04;21.80;;;10.82;;
55655;SDS011;41530;52.382;5.270;2022-08-19T08:56:37;19.95;;;11.65;;
55655;SDS011;41530;52.382;5.270;2022-08-19T08:59:06;20.15;;;11.27;;
55655;SDS011;41530;52.382;5.270;2022-08-19T09:01:46;18.08;;;10.93;;
55655;SDS011;41530;52.382;5.270;2022-08-19T09:04:14;20.83;;;12.50;;
55655;SDS011;41530;52.382;5.270;2022-08-19T09:06:51;21.38;;;11.32;;
55655;SDS011;41530;52.382;5.270;2022-08-19T09:10:04;20.92;;;11.07;;
55655;SDS011;41530;52.382;5.270;2022-08-19T09:15:36;18.75;;;10.85;;
55655;SDS011;41530;52.382;5.270;2022-08-19T09:18:08;17.17;;;10.23;;
55655;SDS011;41530;52.382;5.270;2022-08-19T09:20:45;16.20;;;11.02;;
55655;SDS011;41530;52.382;5.270;2022-08-19T09:23:15;17.55;;;10.07;;
55655;SDS011;41530;52.382;5.270;2022-08-19T09:25:42;17.05;;;9.60;;
55655;SDS011;41530;52.382;5.270;2022-08-19T09:28:08;17.23;;;9.00;;
55655;SDS011;41530;52.382;5.270;2022-08-19T09:30:52;17.42;;;9.70;;
55655;SDS011;41530;52.382;5.270;2022-08-19T09:33:19;20.77;;;10.60;;
55655;SDS011;41530;52.382;5.270;2022-08-19T09:35:46;19.73;;;12.05;;
55655;SDS011;41530;52.382;5.270;2022-08-19T09:38:18;17.80;;;9.48;;
55655;SDS011;41530;52.382;5.270;2022-08-19T09:40:46;16.33;;;9.80;;
55655;SDS011;41530;52.382;5.270;2022-08-19T09:43:12;13.32;;;9.30;;
55655;SDS011;41530;52.382;5.270;2022-08-19T09:45:39;17.55;;;10.38;;
55655;SDS011;41530;52.382;5.270;2022-08-19T09:48:06;16.38;;;10.80;;
55655;SDS011;41530;52.382;5.270;2022-08-19T09:50:36;15.23;;;10.70;;
55655;SDS011;41530;52.382;5.270;2022-08-19T09:53:17;20.88;;;10.95;;
55655;SDS011;41530;52.382;5.270;2022-08-19T09:55:44;15.73;;;9.70;;
55655;SDS011;41530;52.382;5.270;2022-08-19T09:58:11;18.55;;;10.45;;
55655;SDS011;41530;52.382;5.270;2022-08-19T10:00:37;17.38;;;9.27;;
55655;SDS011;41530;52.382;5.270;2022-08-19T10:03:04;16.10;;;9.88;;
55655;SDS011;41530;52.382;5.270;2022-08-19T10:05:33;16.40;;;9.63;;
55655;SDS011;41530;52.382;5.270;2022-08-19T10:08:19;13.02;;;8.93;;
55655;SDS011;41530;52.382;5.270;2022-08-19T10:10:55;18.27;;;10.52;;
55655;SDS011;41530;52.382;5.270;2022-08-19T10:13:25;17.58;;;10.85;;
55655;SDS011;41530;52.382;5.270;2022-08-19T10:15:55;22.30;;;12.65;;
55655;SDS011;41530;52.382;5.270;2022-08-19T10:18:23;21.10;;;13.15;;
55655;SDS011;41530;52.382;5.270;2022-08-19T10:20:51;18.25;;;11.10;;
55655;SDS011;41530;52.382;5.270;2022-08-19T10:23:20;20.13;;;11.85;;
55655;SDS011;41530;52.382;5.270;2022-08-19T10:25:47;21.25;;;12.90;;
55655;SDS011;41530;52.382;5.270;2022-08-19T10:28:14;20.42;;;14.00;;
55655;SDS011;41530;52.382;5.270;2022-08-19T10:30:44;18.65;;;12.77;;
55655;SDS011;41530;52.382;5.270;2022-08-19T10:33:11;22.60;;;14.40;;
55655;SDS011;41530;52.382;5.270;2022-08-19T10:35:38;18.88;;;12.82;;
55655;SDS011;41530;52.382;5.270;2022-08-19T10:38:22;22.52;;;13.90;;
55655;SDS011;41530;52.382;5.270;2022-08-19T10:41:05;25.20;;;13.82;;
55655;SDS011;41530;52.382;5.270;2022-08-19T10:43:39;23.42;;;15.60;;
55655;SDS011;41530;52.382;5.270;2022-08-19T10:46:07;23.35;;;14.07;;
55655;SDS011;41530;52.382;5.270;2022-08-19T10:48:42;23.73;;;15.53;;
55655;SDS011;41530;52.382;5.270;2022-08-19T10:51:09;18.63;;;12.88;;
55655;SDS011;41530;52.382;5.270;2022-08-19T10:56:22;17.52;;;11.57;;
55655;SDS011;41530;52.382;5.270;2022-08-19T10:59:07;19.13;;;13.07;;
55655;SDS011;41530;52.382;5.270;2022-08-19T11:01:34;21.10;;;12.75;;
55655;SDS011;41530;52.382;5.270;2022-08-19T11:04:02;17.13;;;12.25;;
55655;SDS011;41530;52.382;5.270;2022-08-19T11:06:31;17.63;;;12.35;;
55655;SDS011;41530;52.382;5.270;2022-08-19T11:08:58;18.92;;;12.63;;
55655;SDS011;41530;52.382;5.270;2022-08-19T11:11:26;20.08;;;12.73;;
55655;SDS011;41530;52.382;5.270;2022-08-19T11:13:54;27.23;;;14.90;;
55655;SDS011;41530;52.382;5.270;2022-08-19T11:16:22;22.85;;;13.35;;
55655;SDS011;41530;52.382;5.270;2022-08-19T11:18:51;24.33;;;13.98;;
55655;SDS011;41530;52.382;5.270;2022-08-19T11:21:22;20.52;;;12.98;;
55655;SDS011;41530;52.382;5.270;2022-08-19T11:23:55;18.10;;;12.25;;
55655;SDS011;41530;52.382;5.270;2022-08-19T11:26:25;18.05;;;12.23;;
55655;SDS011;41530;52.382;5.270;2022-08-19T11:28:51;20.67;;;12.65;;
55655;SDS011;41530;52.382;5.270;2022-08-19T11:31:24;19.63;;;12.02;;
55655;SDS011;41530;52.382;5.270;2022-08-19T11:33:55;15.73;;;11.38;;
55655;SDS011;41530;52.382;5.270;2022-08-19T11:36:23;19.85;;;12.18;;
55655;SDS011;41530;52.382;5.270;2022-08-19T11:38:50;20.52;;;11.95;;
55655;SDS011;41530;52.382;5.270;2022-08-19T11:41:18;13.27;;;10.27;;
55655;SDS011;41530;52.382;5.270;2022-08-19T11:43:46;18.42;;;11.05;;
55655;SDS011;41530;52.382;5.270;2022-08-19T11:46:14;14.73;;;9.80;;
55655;SDS011;41530;52.382;5.270;2022-08-19T11:48:42;14.73;;;9.05;;
55655;SDS011;41530;52.382;5.270;2022-08-19T11:51:10;12.13;;;8.43;;
55655;SDS011;41530;52.382;5.270;2022-08-19T11:53:39;11.35;;;7.30;;
55655;SDS011;41530;52.382;5.270;2022-08-19T11:56:06;18.90;;;6.28;;
55655;SDS011;41530;52.382;5.270;2022-08-19T11:58:35;7.72;;;5.47;;
55655;SDS011;41530;52.382;5.270;2022-08-19T12:01:05;12.07;;;5.20;;
55655;SDS011;41530;52.382;5.270;2022-08-19T12:03:33;8.85;;;4.75;;
55655;SDS011;41530;52.382;5.270;2022-08-19T12:06:10;9.23;;;4.50;;
55655;SDS011;41530;52.382;5.270;2022-08-19T12:08:39;8.38;;;4.40;;
55655;SDS011;41530;52.382;5.270;2022-08-19T12:11:07;8.23;;;3.72;;
55655;SDS011;41530;52.382;5.270;2022-08-19T12:13:36;6.70;;;3.72;;
55655;SDS011;41530;52.382;5.270;2022-08-19T12:16:08;6.60;;;3.67;;
55655;SDS011;41530;52.382;5.270;2022-08-19T12:18:38;7.38;;;3.72;;
55655;SDS011;41530;52.382;5.270;2022-08-19T12:21:09;8.85;;;3.75;;
55655;SDS011;41530;52.382;5.270;2022-08-19T12:23:37;7.38;;;3.75;;
55655;SDS011;41530;52.382;5.270;2022-08-19T12:26:03;5.03;;;2.83;;
55655;SDS011;41530;52.382;5.270;2022-08-19T12:28:30;7.88;;;3.28;;
55655;SDS011;41530;52.382;5.270;2022-08-19T12:30:57;6.40;;;3.35;;
55655;SDS011;41530;52.382;5.270;2022-08-19T12:33:24;7.40;;;2.65;;
55655;SDS011;41530;52.382;5.270;2022-08-19T12:35:54;7.25;;;3.05;;
55655;SDS011;41530;52.382;5.270;2022-08-19T12:38:21;6.05;;;2.95;;
55655;SDS011;41530;52.382;5.270;2022-08-19T12:40:50;4.80;;;2.45;;
55655;SDS011;41530;52.382;5.270;2022-08-19T12:43:23;7.45;;;2.83;;
55655;SDS011;41530;52.382;5.270;2022-08-19T12:45:50;10.07;;;2.38;;
55655;SDS011;41530;52.382;5.270;2022-08-19T12:48:17;5.30;;;2.35;;
55655;SDS011;41530;52.382;5.270;2022-08-19T12:51:00;5.50;;;2.00;;
55655;SDS011;41530;52.382;5.270;2022-08-19T12:53:31;7.10;;;2.58;;
55655;SDS011;41530;52.382;5.270;2022-08-19T12:55:59;3.63;;;2.10;;
55655;SDS011;41530;52.382;5.270;2022-08-19T12:58:27;8.45;;;2.40;;
55655;SDS011;41530;52.382;5.270;2022-08-19T13:00:55;4.18;;;2.20;;
55655;SDS011;41530;52.382;5.270;2022-08-19T13:03:21;3.92;;;2.15;;
55655;SDS011;41530;52.382;5.270;2022-08-19T13:05:53;3.72;;;2.10;;
55655;SDS011;41530;52.382;5.270;2022-08-19T13:08:20;5.82;;;2.10;;
55655;SDS011;41530;52.382;5.270;2022-08-19T13:10:46;4.93;;;2.20;;
55655;SDS011;41530;52.382;5.270;2022-08-19T13:13:13;3.92;;;1.83;;
55655;SDS011;41530;52.382;5.270;2022-08-19T13:15:40;7.00;;;2.10;;
55655;SDS011;41530;52.382;5.270;2022-08-19T13:18:08;6.05;;;2.38;;
55655;SDS011;41530;52.382;5.270;2022-08-19T13:20:37;4.85;;;2.10;;
55655;SDS011;41530;52.382;5.270;2022-08-19T13:23:07;4.28;;;1.98;;
55655;SDS011;41530;52.382;5.270;2022-08-19T13:25:34;5.93;;;2.40;;
55655;SDS011;41530;52.382;5.270;2022-08-19T13:28:02;6.03;;;2.00;;
55655;SDS011;41530;52.382;5.270;2022-08-19T13:30:30;4.85;;;2.38;;
55655;SDS011;41530;52.382;5.270;2022-08-19T13:33:15;5.43;;;2.20;;
55655;SDS011;41530;52.382;5.270;2022-08-19T13:35:43;6.75;;;2.33;;
55655;SDS011;41530;52.382;5.270;2022-08-19T13:38:11;5.38;;;2.03;;
55655;SDS011;41530;52.382;5.270;2022-08-19T13:40:39;6.05;;;2.55;;
55655;SDS011;41530;52.382;5.270;2022-08-19T13:43:07;5.82;;;2.38;;
55655;SDS011;41530;52.382;5.270;2022-08-19T13:45:51;5.13;;;2.42;;
55655;SDS011;41530;52.382;5.270;2022-08-19T13:48:23;7.20;;;2.75;;
55655;SDS011;41530;52.382;5.270;2022-08-19T13:50:52;4.07;;;2.22;;
55655;SDS011;41530;52.382;5.270;2022-08-19T13:53:20;4.82;;;2.10;;
55655;SDS011;41530;52.382;5.270;2022-08-19T13:55:47;3.78;;;2.20;;
55655;SDS011;41530;52.382;5.270;2022-08-19T13:58:13;3.13;;;1.90;;
55655;SDS011;41530;52.382;5.270;2022-08-19T14:00:41;2.97;;;2.00;;
55655;SDS011;41530;52.382;5.270;2022-08-19T14:03:11;10.27;;;2.67;;
55655;SDS011;41530;52.382;5.270;2022-08-19T14:05:38;6.93;;;2.35;;
55655;SDS011;41530;52.382;5.270;2022-08-19T14:08:05;5.65;;;2.00;;
55655;SDS011;41530;52.382;5.270;2022-08-19T14:10:32;6.28;;;2.22;;
55655;SDS011;41530;52.382;5.270;2022-08-19T14:13:00;4.85;;;1.83;;
55655;SDS011;41530;52.382;5.270;2022-08-19T14:15:29;4.75;;;1.83;;
55655;SDS011;41530;52.382;5.270;2022-08-19T14:17:57;4.20;;;2.00;;
55655;SDS011;41530;52.382;5.270;2022-08-19T14:20:24;3.20;;;1.83;;
55655;SDS011;41530;52.382;5.270;2022-08-19T14:22:52;3.92;;;2.00;;
55655;SDS011;41530;52.382;5.270;2022-08-19T14:25:20;3.03;;;1.70;;
55655;SDS011;41530;52.382;5.270;2022-08-19T14:27:49;6.18;;;2.00;;
55655;SDS011;41530;52.382;5.270;2022-08-19T14:30:18;2.25;;;1.65;;
55655;SDS011;41530;52.382;5.270;2022-08-19T14:32:47;3.67;;;1.48;;
55655;SDS011;41530;52.382;5.270;2022-08-19T14:35:14;3.13;;;1.90;;
55655;SDS011;41530;52.382;5.270;2022-08-19T14:37:42;3.28;;;1.58;;
55655;SDS011;41530;52.382;5.270;2022-08-19T14:40:16;2.88;;;1.35;;
55655;SDS011;41530;52.382;5.270;2022-08-19T14:42:46;3.08;;;1.40;;
55655;SDS011;41530;52.382;5.270;2022-08-19T14:45:14;2.58;;;1.40;;
55655;SDS011;41530;52.382;5.270;2022-08-19T14:47:41;1.35;;;1.10;;
55655;SDS011;41530;52.382;5.270;2022-08-19T14:50:10;2.78;;;1.20;;
55655;SDS011;41530;52.382;5.270;2022-08-19T14:52:44;3.55;;;1.30;;
55655;SDS011;41530;52.382;5.270;2022-08-19T14:55:17;1.65;;;0.95;;
55655;SDS011;41530;52.382;5.270;2022-08-19T14:57:44;2.95;;;1.10;;
55655;SDS011;41530;52.382;5.270;2022-08-19T15:00:11;1.58;;;1.30;;
55655;SDS011;41530;52.382;5.270;2022-08-19T15:02:39;1.05;;;1.00;;
55655;SDS011;41530;52.382;5.270;2022-08-19T15:05:07;1.90;;;0.90;;
55655;SDS011;41530;52.382;5.270;2022-08-19T15:07:34;1.25;;;0.73;;
55655;SDS011;41530;52.382;5.270;2022-08-19T15:10:01;1.80;;;0.70;;
55655;SDS011;41530;52.382;5.270;2022-08-19T15:12:27;1.65;;;0.70;;
55655;SDS011;41530;52.382;5.270;2022-08-19T15:14:54;1.75;;;0.70;;
55655;SDS011;41530;52.382;5.270;2022-08-19T15:17:22;1.42;;;0.90;;
55655;SDS011;41530;52.382;5.270;2022-08-19T15:20:09;2.17;;;0.80;;